LRTM

Details ICAO LRTM (TGM)
Name TRANSILVANIA TARGU MURES
Region Romania
Timezone Europe/Bucharest (UTC+2.0)
Plans Departing 18
Arriving 15
Stats Elevation 963 ft / 294 m (AMSL)
Location 46.467778° 24.412500°
Runways 1
Magnetic Variation 5.620° E
Sunrise 2017-12-11 05:57:23 UTC / 2017-12-11 07:57:23 Local
Sunset 2017-12-11 14:36:41 UTC / 2017-12-11 16:36:41 Local
Advertisement - Login to hide

Runways

ID Width Length Bearing (true) Bearing (mag) Surface Threshold Offset Overrun Length
07 98 ft / 30 m 6,543 ft / 1,994 m 73.80° 68.18° Concrete 0 ft / 0 m 0 ft / 0 m
25 98 ft / 30 m 6,543 ft / 1,994 m 253.82° 248.20° Concrete 0 ft / 0 m 0 ft / 0 m

Approach Navaids

Runway Type Ident Frequency Range Bearing (true) Bearing (mag) Slope Elevation
07 Localiser ITM 109.50 MHz 18 nm / 33 km 74.22° 68.60° - 963 ft / 294 m (AMSL)
07 Glidescope ITM 109.50 MHz 10 nm / 19 km 73.81° 68.19° 3.20° 963 ft / 294 m (AMSL)

Map

Weather


0- 5 10 15 20 25 30 35+ Temperature / ° C

Clouds and Precipitation
Forecast for 2017-12-12 00:00 UTC. Updated 5 minutes ago

Ground ~20,000 ft ~40,000 ft Winds

METAR

LRTM 111900Z AUTO 08005KT 9999 FEW100 00/M01 Q1011

TAF

Not found

Frequencies

Tower 125.90 MHz TARGU MURES TWR
Approach 121.90 MHz TARGU MURES APP
Warning: Do not use this data for real-world aviation or navigation. No guarantee of current accuracy is given.